sensor_id;sensor_type;location;lat;lon;timestamp;P1;durP1;ratioP1;P2;durP2;ratioP2
30466;SDS011;17258;52.560;13.046;2022-10-23T00:00:13;3.50;;;1.37;;
30466;SDS011;17258;52.560;13.046;2022-10-23T00:10:14;1.95;;;1.85;;
30466;SDS011;17258;52.560;13.046;2022-10-23T00:20:15;2.03;;;1.63;;
30466;SDS011;17258;52.560;13.046;2022-10-23T00:30:16;3.35;;;1.67;;
30466;SDS011;17258;52.560;13.046;2022-10-23T00:40:17;2.10;;;1.90;;
30466;SDS011;17258;52.560;13.046;2022-10-23T00:50:18;2.53;;;1.73;;
30466;SDS011;17258;52.560;13.046;2022-10-23T01:00:24;1.80;;;1.45;;
30466;SDS011;17258;52.560;13.046;2022-10-23T01:10:39;1.63;;;1.52;;
30466;SDS011;17258;52.560;13.046;2022-10-23T01:21:08;2.45;;;1.63;;
30466;SDS011;17258;52.560;13.046;2022-10-23T01:31:18;2.42;;;2.08;;
30466;SDS011;17258;52.560;13.046;2022-10-23T01:41:35;1.60;;;1.50;;
30466;SDS011;17258;52.560;13.046;2022-10-23T01:51:48;1.67;;;1.42;;
30466;SDS011;17258;52.560;13.046;2022-10-23T02:01:54;2.72;;;1.60;;
30466;SDS011;17258;52.560;13.046;2022-10-23T02:12:12;1.83;;;1.73;;
30466;SDS011;17258;52.560;13.046;2022-10-23T02:32:26;1.95;;;1.73;;
30466;SDS011;17258;52.560;13.046;2022-10-23T02:42:33;1.75;;;1.55;;
30466;SDS011;17258;52.560;13.046;2022-10-23T02:52:52;5.55;;;1.52;;
30466;SDS011;17258;52.560;13.046;2022-10-23T03:03:16;2.38;;;2.20;;
30466;SDS011;17258;52.560;13.046;2022-10-23T03:13:29;2.65;;;1.92;;
30466;SDS011;17258;52.560;13.046;2022-10-23T03:23:29;1.47;;;1.37;;
30466;SDS011;17258;52.560;13.046;2022-10-23T03:33:30;1.70;;;1.60;;
30466;SDS011;17258;52.560;13.046;2022-10-23T03:43:31;2.15;;;2.05;;
30466;SDS011;17258;52.560;13.046;2022-10-23T03:53:32;2.53;;;2.33;;
30466;SDS011;17258;52.560;13.046;2022-10-23T04:03:33;3.05;;;2.17;;
30466;SDS011;17258;52.560;13.046;2022-10-23T04:13:34;1.57;;;1.47;;
30466;SDS011;17258;52.560;13.046;2022-10-23T04:23:34;2.27;;;1.63;;
30466;SDS011;17258;52.560;13.046;2022-10-23T04:33:35;1.60;;;1.50;;
30466;SDS011;17258;52.560;13.046;2022-10-23T04:43:36;2.40;;;1.83;;
30466;SDS011;17258;52.560;13.046;2022-10-23T04:53:37;2.83;;;2.27;;
30466;SDS011;17258;52.560;13.046;2022-10-23T05:03:38;2.40;;;2.20;;
30466;SDS011;17258;52.560;13.046;2022-10-23T05:13:38;1.85;;;1.75;;
30466;SDS011;17258;52.560;13.046;2022-10-23T05:23:40;2.07;;;1.87;;
30466;SDS011;17258;52.560;13.046;2022-10-23T05:33:42;2.17;;;1.92;;
30466;SDS011;17258;52.560;13.046;2022-10-23T05:43:43;4.17;;;2.00;;
30466;SDS011;17258;52.560;13.046;2022-10-23T05:53:45;1.80;;;1.70;;
30466;SDS011;17258;52.560;13.046;2022-10-23T06:03:45;2.35;;;2.25;;
30466;SDS011;17258;52.560;13.046;2022-10-23T06:13:46;2.77;;;2.57;;
30466;SDS011;17258;52.560;13.046;2022-10-23T06:23:49;2.08;;;1.98;;
30466;SDS011;17258;52.560;13.046;2022-10-23T06:33:50;3.33;;;2.10;;
30466;SDS011;17258;52.560;13.046;2022-10-23T06:43:52;1.70;;;1.60;;
30466;SDS011;17258;52.560;13.046;2022-10-23T06:53:54;2.33;;;2.13;;
30466;SDS011;17258;52.560;13.046;2022-10-23T07:03:55;2.05;;;1.95;;
30466;SDS011;17258;52.560;13.046;2022-10-23T07:13:56;2.57;;;1.80;;
30466;SDS011;17258;52.560;13.046;2022-10-23T07:23:57;3.90;;;3.60;;
30466;SDS011;17258;52.560;13.046;2022-10-23T07:33:58;3.95;;;3.75;;
30466;SDS011;17258;52.560;13.046;2022-10-23T07:43:58;5.20;;;4.80;;
30466;SDS011;17258;52.560;13.046;2022-10-23T07:53:59;8.47;;;7.87;;
30466;SDS011;17258;52.560;13.046;2022-10-23T08:04:00;7.93;;;7.43;;
30466;SDS011;17258;52.560;13.046;2022-10-23T08:14:01;4.63;;;3.45;;
30466;SDS011;17258;52.560;13.046;2022-10-23T08:24:03;3.78;;;2.47;;
30466;SDS011;17258;52.560;13.046;2022-10-23T08:34:05;5.05;;;3.17;;
30466;SDS011;17258;52.560;13.046;2022-10-23T08:44:12;3.78;;;2.83;;
30466;SDS011;17258;52.560;13.046;2022-10-23T08:54:46;3.05;;;2.55;;
30466;SDS011;17258;52.560;13.046;2022-10-23T09:05:18;2.85;;;2.58;;
30466;SDS011;17258;52.560;13.046;2022-10-23T09:26:44;3.78;;;3.38;;
30466;SDS011;17258;52.560;13.046;2022-10-23T09:36:58;3.35;;;3.15;;
30466;SDS011;17258;52.560;13.046;2022-10-23T09:47:21;2.53;;;2.33;;
30466;SDS011;17258;52.560;13.046;2022-10-23T10:07:39;3.90;;;3.70;;
30466;SDS011;17258;52.560;13.046;2022-10-23T10:39:21;6.22;;;5.82;;
30466;SDS011;17258;52.560;13.046;2022-10-23T10:49:39;9.55;;;8.82;;
30466;SDS011;17258;52.560;13.046;2022-10-23T10:59:57;10.43;;;9.80;;
30466;SDS011;17258;52.560;13.046;2022-10-23T11:10:10;10.25;;;9.75;;
30466;SDS011;17258;52.560;13.046;2022-10-23T11:30:48;11.77;;;11.18;;
30466;SDS011;17258;52.560;13.046;2022-10-23T11:41:26;13.15;;;12.00;;
30466;SDS011;17258;52.560;13.046;2022-10-23T11:51:36;13.83;;;13.03;;
30466;SDS011;17258;52.560;13.046;2022-10-23T12:01:40;14.05;;;13.05;;
30466;SDS011;17258;52.560;13.046;2022-10-23T12:11:45;13.80;;;13.10;;
30466;SDS011;17258;52.560;13.046;2022-10-23T12:21:54;15.00;;;14.02;;
30466;SDS011;17258;52.560;13.046;2022-10-23T12:32:05;10.70;;;10.20;;
30466;SDS011;17258;52.560;13.046;2022-10-23T12:42:25;6.15;;;5.85;;
30466;SDS011;17258;52.560;13.046;2022-10-23T12:52:28;6.68;;;4.47;;
30466;SDS011;17258;52.560;13.046;2022-10-23T13:02:29;10.70;;;10.20;;
30466;SDS011;17258;52.560;13.046;2022-10-23T13:12:32;14.63;;;13.82;;
30466;SDS011;17258;52.560;13.046;2022-10-23T13:22:34;17.38;;;16.38;;
30466;SDS011;17258;52.560;13.046;2022-10-23T13:32:35;10.45;;;9.95;;
30466;SDS011;17258;52.560;13.046;2022-10-23T13:42:35;3.47;;;3.27;;
30466;SDS011;17258;52.560;13.046;2022-10-23T13:52:36;3.87;;;3.57;;
30466;SDS011;17258;52.560;13.046;2022-10-23T14:02:37;5.23;;;1.57;;
30466;SDS011;17258;52.560;13.046;2022-10-23T14:12:38;4.67;;;1.43;;
30466;SDS011;17258;52.560;13.046;2022-10-23T14:22:43;1.05;;;0.90;;
30466;SDS011;17258;52.560;13.046;2022-10-23T14:32:43;6.07;;;1.60;;
30466;SDS011;17258;52.560;13.046;2022-10-23T14:42:44;2.27;;;1.20;;
30466;SDS011;17258;52.560;13.046;2022-10-23T14:52:45;3.43;;;2.13;;
30466;SDS011;17258;52.560;13.046;2022-10-23T15:02:45;2.13;;;1.20;;
30466;SDS011;17258;52.560;13.046;2022-10-23T15:12:46;2.23;;;1.30;;
30466;SDS011;17258;52.560;13.046;2022-10-23T15:22:47;2.38;;;0.90;;
30466;SDS011;17258;52.560;13.046;2022-10-23T15:32:48;2.10;;;1.40;;
30466;SDS011;17258;52.560;13.046;2022-10-23T15:42:48;3.07;;;2.70;;
30466;SDS011;17258;52.560;13.046;2022-10-23T15:52:49;3.80;;;3.07;;
30466;SDS011;17258;52.560;13.046;2022-10-23T16:02:52;3.65;;;2.53;;
30466;SDS011;17258;52.560;13.046;2022-10-23T16:12:52;6.73;;;2.63;;
30466;SDS011;17258;52.560;13.046;2022-10-23T16:22:53;2.42;;;1.98;;
30466;SDS011;17258;52.560;13.046;2022-10-23T16:32:54;4.57;;;3.77;;
30466;SDS011;17258;52.560;13.046;2022-10-23T16:42:55;5.03;;;4.47;;
30466;SDS011;17258;52.560;13.046;2022-10-23T16:52:57;2.42;;;2.22;;
30466;SDS011;17258;52.560;13.046;2022-10-23T17:02:57;2.07;;;1.83;;
30466;SDS011;17258;52.560;13.046;2022-10-23T17:12:58;2.80;;;2.00;;
30466;SDS011;17258;52.560;13.046;2022-10-23T17:22:59;6.20;;;2.83;;
30466;SDS011;17258;52.560;13.046;2022-10-23T17:32:59;1.90;;;1.80;;
30466;SDS011;17258;52.560;13.046;2022-10-23T17:43:00;1.80;;;1.70;;
30466;SDS011;17258;52.560;13.046;2022-10-23T17:53:02;1.80;;;1.67;;
30466;SDS011;17258;52.560;13.046;2022-10-23T18:03:02;1.50;;;1.40;;
30466;SDS011;17258;52.560;13.046;2022-10-23T18:13:04;1.70;;;1.60;;
30466;SDS011;17258;52.560;13.046;2022-10-23T18:23:04;5.63;;;2.60;;
30466;SDS011;17258;52.560;13.046;2022-10-23T18:33:06;2.13;;;1.95;;
30466;SDS011;17258;52.560;13.046;2022-10-23T18:43:06;2.23;;;2.07;;
30466;SDS011;17258;52.560;13.046;2022-10-23T18:53:08;2.35;;;2.10;;
30466;SDS011;17258;52.560;13.046;2022-10-23T19:03:09;2.53;;;1.80;;
30466;SDS011;17258;52.560;13.046;2022-10-23T19:13:11;1.52;;;1.42;;
30466;SDS011;17258;52.560;13.046;2022-10-23T19:23:11;1.90;;;1.37;;
30466;SDS011;17258;52.560;13.046;2022-10-23T19:33:12;4.30;;;1.92;;
30466;SDS011;17258;52.560;13.046;2022-10-23T19:43:13;3.27;;;1.83;;
30466;SDS011;17258;52.560;13.046;2022-10-23T19:53:13;6.87;;;1.80;;
30466;SDS011;17258;52.560;13.046;2022-10-23T20:03:15;1.98;;;1.77;;
30466;SDS011;17258;52.560;13.046;2022-10-23T20:13:17;8.18;;;2.25;;
30466;SDS011;17258;52.560;13.046;2022-10-23T20:23:18;3.33;;;2.37;;
30466;SDS011;17258;52.560;13.046;2022-10-23T20:33:19;4.28;;;2.08;;
30466;SDS011;17258;52.560;13.046;2022-10-23T20:43:20;3.00;;;2.57;;
30466;SDS011;17258;52.560;13.046;2022-10-23T20:53:20;5.40;;;2.33;;
30466;SDS011;17258;52.560;13.046;2022-10-23T21:03:21;4.57;;;2.67;;
30466;SDS011;17258;52.560;13.046;2022-10-23T21:13:22;2.05;;;1.90;;
30466;SDS011;17258;52.560;13.046;2022-10-23T21:23:22;1.47;;;1.37;;
30466;SDS011;17258;52.560;13.046;2022-10-23T21:33:23;2.20;;;2.07;;
30466;SDS011;17258;52.560;13.046;2022-10-23T21:43:24;1.85;;;1.75;;
30466;SDS011;17258;52.560;13.046;2022-10-23T21:53:25;2.37;;;2.10;;
30466;SDS011;17258;52.560;13.046;2022-10-23T22:03:27;2.00;;;1.88;;
30466;SDS011;17258;52.560;13.046;2022-10-23T22:13:27;2.10;;;1.93;;
30466;SDS011;17258;52.560;13.046;2022-10-23T22:23:28;2.30;;;2.03;;
30466;SDS011;17258;52.560;13.046;2022-10-23T22:33:29;3.72;;;2.35;;
30466;SDS011;17258;52.560;13.046;2022-10-23T22:43:30;2.63;;;2.42;;
30466;SDS011;17258;52.560;13.046;2022-10-23T22:53:31;2.27;;;2.03;;
30466;SDS011;17258;52.560;13.046;2022-10-23T23:03:33;3.33;;;2.33;;
30466;SDS011;17258;52.560;13.046;2022-10-23T23:13:35;1.73;;;1.63;;
30466;SDS011;17258;52.560;13.046;2022-10-23T23:23:36;1.83;;;1.73;;
30466;SDS011;17258;52.560;13.046;2022-10-23T23:33:36;1.70;;;1.53;;
30466;SDS011;17258;52.560;13.046;2022-10-23T23:43:37;2.75;;;1.88;;
30466;SDS011;17258;52.560;13.046;2022-10-23T23:53:38;2.53;;;1.93;;
